sensor_id;sensor_type;location;lat;lon;timestamp;P1;durP1;ratioP1;P2;durP2;ratioP2
1328;SDS011;658;48.820;9.354;2023-08-06T00:04:03;1.20;;;1.10;;
1328;SDS011;658;48.820;9.354;2023-08-06T00:08:05;1.00;;;1.00;;
1328;SDS011;658;48.820;9.354;2023-08-06T00:12:06;1.07;;;1.07;;
1328;SDS011;658;48.820;9.354;2023-08-06T00:16:13;1.60;;;1.50;;
1328;SDS011;658;48.820;9.354;2023-08-06T00:20:14;1.70;;;1.40;;
1328;SDS011;658;48.820;9.354;2023-08-06T00:24:16;1.00;;;1.00;;
1328;SDS011;658;48.820;9.354;2023-08-06T00:28:17;1.47;;;1.37;;
1328;SDS011;658;48.820;9.354;2023-08-06T00:32:17;2.10;;;1.20;;
1328;SDS011;658;48.820;9.354;2023-08-06T00:36:18;1.40;;;1.30;;
1328;SDS011;658;48.820;9.354;2023-08-06T00:40:22;1.60;;;1.50;;
1328;SDS011;658;48.820;9.354;2023-08-06T00:44:23;1.03;;;0.93;;
1328;SDS011;658;48.820;9.354;2023-08-06T00:48:25;0.93;;;0.93;;
1328;SDS011;658;48.820;9.354;2023-08-06T00:52:27;1.40;;;1.30;;
1328;SDS011;658;48.820;9.354;2023-08-06T00:56:27;1.00;;;1.00;;
1328;SDS011;658;48.820;9.354;2023-08-06T01:00:28;1.30;;;1.20;;
1328;SDS011;658;48.820;9.354;2023-08-06T01:04:29;1.10;;;0.90;;
1328;SDS011;658;48.820;9.354;2023-08-06T01:16:50;1.37;;;1.27;;
1328;SDS011;658;48.820;9.354;2023-08-06T01:20:51;1.13;;;1.13;;
1328;SDS011;658;48.820;9.354;2023-08-06T01:24:54;1.20;;;1.10;;
1328;SDS011;658;48.820;9.354;2023-08-06T01:33:32;1.13;;;1.03;;
1328;SDS011;658;48.820;9.354;2023-08-06T01:37:38;1.37;;;1.10;;
1328;SDS011;658;48.820;9.354;2023-08-06T01:41:40;1.20;;;1.10;;
1328;SDS011;658;48.820;9.354;2023-08-06T01:45:43;1.43;;;1.17;;
1328;SDS011;658;48.820;9.354;2023-08-06T01:49:43;1.07;;;1.07;;
1328;SDS011;658;48.820;9.354;2023-08-06T01:53:46;1.43;;;1.20;;
1328;SDS011;658;48.820;9.354;2023-08-06T01:57:47;1.17;;;1.10;;
1328;SDS011;658;48.820;9.354;2023-08-06T02:01:47;1.10;;;1.10;;
1328;SDS011;658;48.820;9.354;2023-08-06T02:05:48;1.23;;;1.23;;
1328;SDS011;658;48.820;9.354;2023-08-06T02:09:49;1.00;;;1.00;;
1328;SDS011;658;48.820;9.354;2023-08-06T02:13:49;1.03;;;1.03;;
1328;SDS011;658;48.820;9.354;2023-08-06T02:17:50;1.00;;;1.00;;
1328;SDS011;658;48.820;9.354;2023-08-06T02:21:50;1.20;;;1.10;;
1328;SDS011;658;48.820;9.354;2023-08-06T02:26:24;0.90;;;0.90;;
1328;SDS011;658;48.820;9.354;2023-08-06T02:30:20;1.10;;;1.10;;
1328;SDS011;658;48.820;9.354;2023-08-06T02:34:20;1.30;;;1.20;;
1328;SDS011;658;48.820;9.354;2023-08-06T02:38:23;1.13;;;1.03;;
1328;SDS011;658;48.820;9.354;2023-08-06T02:42:26;0.97;;;0.97;;
1328;SDS011;658;48.820;9.354;2023-08-06T02:46:27;1.33;;;1.23;;
1328;SDS011;658;48.820;9.354;2023-08-06T02:50:27;1.30;;;1.20;;
1328;SDS011;658;48.820;9.354;2023-08-06T02:54:28;1.47;;;1.30;;
1328;SDS011;658;48.820;9.354;2023-08-06T02:58:28;1.00;;;1.00;;
1328;SDS011;658;48.820;9.354;2023-08-06T03:02:29;1.10;;;1.10;;
1328;SDS011;658;48.820;9.354;2023-08-06T03:06:29;1.30;;;1.20;;
1328;SDS011;658;48.820;9.354;2023-08-06T03:10:31;1.17;;;1.17;;
1328;SDS011;658;48.820;9.354;2023-08-06T03:14:32;1.10;;;1.10;;
1328;SDS011;658;48.820;9.354;2023-08-06T03:18:32;1.20;;;1.20;;
1328;SDS011;658;48.820;9.354;2023-08-06T03:22:33;1.07;;;1.07;;
1328;SDS011;658;48.820;9.354;2023-08-06T03:26:33;1.20;;;1.00;;
1328;SDS011;658;48.820;9.354;2023-08-06T03:30:36;1.27;;;1.17;;
1328;SDS011;658;48.820;9.354;2023-08-06T03:34:37;0.90;;;0.90;;
1328;SDS011;658;48.820;9.354;2023-08-06T03:38:37;0.90;;;0.90;;
1328;SDS011;658;48.820;9.354;2023-08-06T03:42:38;1.50;;;1.40;;
1328;SDS011;658;48.820;9.354;2023-08-06T03:46:38;0.90;;;0.90;;
1328;SDS011;658;48.820;9.354;2023-08-06T03:50:39;1.13;;;1.10;;
1328;SDS011;658;48.820;9.354;2023-08-06T03:54:42;1.30;;;1.20;;
1328;SDS011;658;48.820;9.354;2023-08-06T03:58:43;0.90;;;0.90;;
1328;SDS011;658;48.820;9.354;2023-08-06T04:02:44;1.03;;;1.03;;
1328;SDS011;658;48.820;9.354;2023-08-06T04:06:44;2.07;;;1.10;;
1328;SDS011;658;48.820;9.354;2023-08-06T04:10:48;1.10;;;1.00;;
1328;SDS011;658;48.820;9.354;2023-08-06T04:14:50;1.20;;;1.10;;
1328;SDS011;658;48.820;9.354;2023-08-06T04:18:54;1.30;;;1.20;;
1328;SDS011;658;48.820;9.354;2023-08-06T04:22:55;1.03;;;1.03;;
1328;SDS011;658;48.820;9.354;2023-08-06T04:26:56;1.13;;;1.03;;
1328;SDS011;658;48.820;9.354;2023-08-06T04:30:56;1.17;;;1.17;;
1328;SDS011;658;48.820;9.354;2023-08-06T04:34:57;1.00;;;1.00;;
1328;SDS011;658;48.820;9.354;2023-08-06T04:38:58;1.23;;;1.20;;
1328;SDS011;658;48.820;9.354;2023-08-06T04:42:58;1.20;;;1.10;;
1328;SDS011;658;48.820;9.354;2023-08-06T04:47:00;1.23;;;1.17;;
1328;SDS011;658;48.820;9.354;2023-08-06T04:51:03;1.07;;;1.00;;
1328;SDS011;658;48.820;9.354;2023-08-06T04:55:04;1.30;;;1.20;;
1328;SDS011;658;48.820;9.354;2023-08-06T04:59:06;1.07;;;1.07;;
1328;SDS011;658;48.820;9.354;2023-08-06T05:03:09;1.23;;;0.90;;
1328;SDS011;658;48.820;9.354;2023-08-06T05:07:10;0.90;;;0.90;;
1328;SDS011;658;48.820;9.354;2023-08-06T05:11:10;0.90;;;0.90;;
1328;SDS011;658;48.820;9.354;2023-08-06T05:15:11;1.00;;;1.00;;
1328;SDS011;658;48.820;9.354;2023-08-06T05:19:11;1.00;;;1.00;;
1328;SDS011;658;48.820;9.354;2023-08-06T05:23:12;1.17;;;1.17;;
1328;SDS011;658;48.820;9.354;2023-08-06T05:27:12;1.10;;;1.10;;
1328;SDS011;658;48.820;9.354;2023-08-06T05:31:13;1.03;;;1.00;;
1328;SDS011;658;48.820;9.354;2023-08-06T05:35:14;1.00;;;1.00;;
1328;SDS011;658;48.820;9.354;2023-08-06T05:39:14;0.90;;;0.90;;
1328;SDS011;658;48.820;9.354;2023-08-06T05:43:15;1.10;;;1.00;;
1328;SDS011;658;48.820;9.354;2023-08-06T05:47:18;0.93;;;0.93;;
1328;SDS011;658;48.820;9.354;2023-08-06T05:51:21;1.00;;;1.00;;
1328;SDS011;658;48.820;9.354;2023-08-06T05:55:24;1.00;;;1.00;;
1328;SDS011;658;48.820;9.354;2023-08-06T05:59:24;1.00;;;1.00;;
1328;SDS011;658;48.820;9.354;2023-08-06T06:03:25;1.03;;;0.90;;
1328;SDS011;658;48.820;9.354;2023-08-06T06:07:26;1.10;;;1.10;;
1328;SDS011;658;48.820;9.354;2023-08-06T06:11:26;0.90;;;0.90;;
1328;SDS011;658;48.820;9.354;2023-08-06T06:15:27;1.27;;;0.90;;
1328;SDS011;658;48.820;9.354;2023-08-06T06:19:28;0.90;;;0.90;;
1328;SDS011;658;48.820;9.354;2023-08-06T06:23:30;1.10;;;1.00;;
1328;SDS011;658;48.820;9.354;2023-08-06T06:27:31;0.90;;;0.90;;
1328;SDS011;658;48.820;9.354;2023-08-06T06:31:31;0.87;;;0.87;;
1328;SDS011;658;48.820;9.354;2023-08-06T06:35:32;1.00;;;1.00;;
1328;SDS011;658;48.820;9.354;2023-08-06T06:39:32;1.50;;;0.73;;
1328;SDS011;658;48.820;9.354;2023-08-06T06:43:33;0.90;;;0.90;;
1328;SDS011;658;48.820;9.354;2023-08-06T06:47:34;0.87;;;0.87;;
1328;SDS011;658;48.820;9.354;2023-08-06T06:51:34;1.03;;;0.77;;
1328;SDS011;658;48.820;9.354;2023-08-06T06:55:35;0.80;;;0.80;;
1328;SDS011;658;48.820;9.354;2023-08-06T06:59:37;1.10;;;0.70;;
1328;SDS011;658;48.820;9.354;2023-08-06T07:03:41;1.00;;;1.00;;
1328;SDS011;658;48.820;9.354;2023-08-06T07:07:42;0.80;;;0.80;;
1328;SDS011;658;48.820;9.354;2023-08-06T07:11:42;0.97;;;0.97;;
1328;SDS011;658;48.820;9.354;2023-08-06T07:15:44;0.70;;;0.70;;
1328;SDS011;658;48.820;9.354;2023-08-06T07:19:44;0.70;;;0.70;;
1328;SDS011;658;48.820;9.354;2023-08-06T07:23:47;0.80;;;0.80;;
1328;SDS011;658;48.820;9.354;2023-08-06T07:27:50;0.90;;;0.90;;
1328;SDS011;658;48.820;9.354;2023-08-06T07:31:50;1.43;;;1.00;;
1328;SDS011;658;48.820;9.354;2023-08-06T07:35:51;0.70;;;0.70;;
1328;SDS011;658;48.820;9.354;2023-08-06T07:39:51;0.70;;;0.70;;
1328;SDS011;658;48.820;9.354;2023-08-06T07:43:52;1.17;;;1.07;;
1328;SDS011;658;48.820;9.354;2023-08-06T07:47:53;0.83;;;0.83;;
1328;SDS011;658;48.820;9.354;2023-08-06T07:51:53;0.83;;;0.83;;
1328;SDS011;658;48.820;9.354;2023-08-06T07:55:54;0.90;;;0.90;;
1328;SDS011;658;48.820;9.354;2023-08-06T07:59:55;0.83;;;0.80;;
1328;SDS011;658;48.820;9.354;2023-08-06T08:03:56;0.80;;;0.80;;
1328;SDS011;658;48.820;9.354;2023-08-06T08:07:56;0.67;;;0.67;;
1328;SDS011;658;48.820;9.354;2023-08-06T08:11:59;0.67;;;0.67;;
1328;SDS011;658;48.820;9.354;2023-08-06T08:16:02;0.80;;;0.80;;
1328;SDS011;658;48.820;9.354;2023-08-06T08:20:06;0.80;;;0.80;;
1328;SDS011;658;48.820;9.354;2023-08-06T08:24:07;0.60;;;0.60;;
1328;SDS011;658;48.820;9.354;2023-08-06T08:28:08;0.60;;;0.60;;
1328;SDS011;658;48.820;9.354;2023-08-06T08:32:08;0.70;;;0.70;;
1328;SDS011;658;48.820;9.354;2023-08-06T08:36:10;0.60;;;0.60;;
1328;SDS011;658;48.820;9.354;2023-08-06T08:40:10;0.63;;;0.63;;
1328;SDS011;658;48.820;9.354;2023-08-06T08:44:13;0.67;;;0.50;;
1328;SDS011;658;48.820;9.354;2023-08-06T08:48:18;1.90;;;0.67;;
1328;SDS011;658;48.820;9.354;2023-08-06T08:52:19;0.50;;;0.50;;
1328;SDS011;658;48.820;9.354;2023-08-06T08:56:21;2.07;;;0.70;;
1328;SDS011;658;48.820;9.354;2023-08-06T09:00:22;1.30;;;0.70;;
1328;SDS011;658;48.820;9.354;2023-08-06T09:04:22;1.27;;;0.50;;
1328;SDS011;658;48.820;9.354;2023-08-06T09:08:24;2.30;;;0.70;;
1328;SDS011;658;48.820;9.354;2023-08-06T09:12:30;0.70;;;0.60;;
1328;SDS011;658;48.820;9.354;2023-08-06T09:16:32;0.90;;;0.83;;
1328;SDS011;658;48.820;9.354;2023-08-06T09:20:34;2.93;;;0.70;;
1328;SDS011;658;48.820;9.354;2023-08-06T09:24:35;1.47;;;0.50;;
1328;SDS011;658;48.820;9.354;2023-08-06T09:28:38;0.80;;;0.60;;
1328;SDS011;658;48.820;9.354;2023-08-06T09:32:45;1.37;;;0.30;;
1328;SDS011;658;48.820;9.354;2023-08-06T09:40:49;0.40;;;0.30;;
1328;SDS011;658;48.820;9.354;2023-08-06T09:44:49;0.90;;;0.40;;
1328;SDS011;658;48.820;9.354;2023-08-06T09:48:50;0.37;;;0.30;;
1328;SDS011;658;48.820;9.354;2023-08-06T09:52:53;0.40;;;0.30;;
1328;SDS011;658;48.820;9.354;2023-08-06T09:56:54;0.40;;;0.40;;
1328;SDS011;658;48.820;9.354;2023-08-06T10:00:56;0.50;;;0.30;;
1328;SDS011;658;48.820;9.354;2023-08-06T10:04:57;0.30;;;0.30;;
1328;SDS011;658;48.820;9.354;2023-08-06T10:09:01;0.70;;;0.57;;
1328;SDS011;658;48.820;9.354;2023-08-06T10:13:03;0.60;;;0.30;;
1328;SDS011;658;48.820;9.354;2023-08-06T10:17:06;0.53;;;0.47;;
1328;SDS011;658;48.820;9.354;2023-08-06T10:21:10;0.40;;;0.40;;
1328;SDS011;658;48.820;9.354;2023-08-06T10:25:11;0.47;;;0.40;;
1328;SDS011;658;48.820;9.354;2023-08-06T10:29:35;0.87;;;0.50;;
1328;SDS011;658;48.820;9.354;2023-08-06T10:33:42;1.23;;;0.50;;
1328;SDS011;658;48.820;9.354;2023-08-06T10:37:44;0.40;;;0.30;;
1328;SDS011;658;48.820;9.354;2023-08-06T10:41:45;0.40;;;0.40;;
1328;SDS011;658;48.820;9.354;2023-08-06T10:45:49;0.40;;;0.40;;
1328;SDS011;658;48.820;9.354;2023-08-06T10:49:51;0.50;;;0.40;;
1328;SDS011;658;48.820;9.354;2023-08-06T10:53:51;0.40;;;0.40;;
1328;SDS011;658;48.820;9.354;2023-08-06T10:57:52;0.50;;;0.40;;
1328;SDS011;658;48.820;9.354;2023-08-06T11:01:54;0.40;;;0.37;;
1328;SDS011;658;48.820;9.354;2023-08-06T11:05:54;1.43;;;0.30;;
1328;SDS011;658;48.820;9.354;2023-08-06T11:10:00;0.87;;;0.40;;
1328;SDS011;658;48.820;9.354;2023-08-06T11:14:02;1.43;;;0.60;;
1328;SDS011;658;48.820;9.354;2023-08-06T11:18:02;0.57;;;0.50;;
1328;SDS011;658;48.820;9.354;2023-08-06T11:22:05;1.17;;;0.67;;
1328;SDS011;658;48.820;9.354;2023-08-06T11:26:07;0.63;;;0.50;;
1328;SDS011;658;48.820;9.354;2023-08-06T11:30:07;2.43;;;0.80;;
1328;SDS011;658;48.820;9.354;2023-08-06T11:34:11;1.97;;;0.87;;
1328;SDS011;658;48.820;9.354;2023-08-06T11:38:13;2.00;;;1.23;;
1328;SDS011;658;48.820;9.354;2023-08-06T11:42:14;1.10;;;0.70;;
1328;SDS011;658;48.820;9.354;2023-08-06T11:46:14;1.10;;;0.60;;
1328;SDS011;658;48.820;9.354;2023-08-06T11:50:27;1.77;;;0.60;;
1328;SDS011;658;48.820;9.354;2023-08-06T11:54:31;1.00;;;0.80;;
1328;SDS011;658;48.820;9.354;2023-08-06T11:58:37;0.70;;;0.60;;
1328;SDS011;658;48.820;9.354;2023-08-06T12:02:41;1.00;;;0.83;;
1328;SDS011;658;48.820;9.354;2023-08-06T12:06:43;0.90;;;0.90;;
1328;SDS011;658;48.820;9.354;2023-08-06T12:10:43;1.10;;;0.97;;
1328;SDS011;658;48.820;9.354;2023-08-06T12:14:46;1.33;;;1.00;;
1328;SDS011;658;48.820;9.354;2023-08-06T12:18:49;1.20;;;1.10;;
1328;SDS011;658;48.820;9.354;2023-08-06T12:22:49;1.10;;;1.00;;
1328;SDS011;658;48.820;9.354;2023-08-06T12:26:50;1.10;;;0.90;;
1328;SDS011;658;48.820;9.354;2023-08-06T12:30:51;1.20;;;1.00;;
1328;SDS011;658;48.820;9.354;2023-08-06T12:34:55;2.40;;;1.00;;
1328;SDS011;658;48.820;9.354;2023-08-06T12:38:58;1.00;;;1.00;;
1328;SDS011;658;48.820;9.354;2023-08-06T12:42:58;1.03;;;0.90;;
1328;SDS011;658;48.820;9.354;2023-08-06T12:46:59;1.80;;;1.60;;
1328;SDS011;658;48.820;9.354;2023-08-06T12:51:00;1.60;;;1.50;;
1328;SDS011;658;48.820;9.354;2023-08-06T12:55:00;2.90;;;1.40;;
1328;SDS011;658;48.820;9.354;2023-08-06T12:59:01;2.17;;;1.23;;
1328;SDS011;658;48.820;9.354;2023-08-06T13:03:02;1.77;;;1.10;;
1328;SDS011;658;48.820;9.354;2023-08-06T13:07:05;1.20;;;1.10;;
1328;SDS011;658;48.820;9.354;2023-08-06T13:11:06;1.40;;;1.30;;
1328;SDS011;658;48.820;9.354;2023-08-06T13:15:07;3.70;;;1.77;;
1328;SDS011;658;48.820;9.354;2023-08-06T13:19:10;2.13;;;1.00;;
1328;SDS011;658;48.820;9.354;2023-08-06T13:23:13;0.90;;;0.90;;
1328;SDS011;658;48.820;9.354;2023-08-06T13:27:16;1.43;;;1.33;;
1328;SDS011;658;48.820;9.354;2023-08-06T13:31:17;1.00;;;0.93;;
1328;SDS011;658;48.820;9.354;2023-08-06T13:35:17;1.10;;;0.90;;
1328;SDS011;658;48.820;9.354;2023-08-06T13:39:18;1.10;;;0.90;;
1328;SDS011;658;48.820;9.354;2023-08-06T13:43:19;2.30;;;1.10;;
1328;SDS011;658;48.820;9.354;2023-08-06T13:47:22;2.00;;;1.20;;
1328;SDS011;658;48.820;9.354;2023-08-06T13:51:23;0.80;;;0.80;;
1328;SDS011;658;48.820;9.354;2023-08-06T13:55:25;0.60;;;0.60;;
1328;SDS011;658;48.820;9.354;2023-08-06T13:59:28;0.83;;;0.70;;
1328;SDS011;658;48.820;9.354;2023-08-06T14:03:31;0.60;;;0.60;;
1328;SDS011;658;48.820;9.354;2023-08-06T14:07:32;3.43;;;0.90;;
1328;SDS011;658;48.820;9.354;2023-08-06T14:11:33;1.07;;;0.70;;
1328;SDS011;658;48.820;9.354;2023-08-06T14:15:33;3.90;;;1.20;;
1328;SDS011;658;48.820;9.354;2023-08-06T14:19:34;3.60;;;1.30;;
1328;SDS011;658;48.820;9.354;2023-08-06T14:23:35;2.60;;;1.37;;
1328;SDS011;658;48.820;9.354;2023-08-06T14:27:35;1.10;;;1.00;;
1328;SDS011;658;48.820;9.354;2023-08-06T14:31:36;0.90;;;0.90;;
1328;SDS011;658;48.820;9.354;2023-08-06T14:35:36;1.60;;;0.93;;
1328;SDS011;658;48.820;9.354;2023-08-06T14:39:37;1.80;;;0.90;;
1328;SDS011;658;48.820;9.354;2023-08-06T14:43:37;1.30;;;1.00;;
1328;SDS011;658;48.820;9.354;2023-08-06T14:47:38;1.00;;;0.80;;
1328;SDS011;658;48.820;9.354;2023-08-06T14:51:39;1.80;;;1.00;;
1328;SDS011;658;48.820;9.354;2023-08-06T14:55:39;1.40;;;0.97;;
1328;SDS011;658;48.820;9.354;2023-08-06T14:59:41;1.07;;;1.07;;
1328;SDS011;658;48.820;9.354;2023-08-06T15:03:42;2.80;;;1.20;;
1328;SDS011;658;48.820;9.354;2023-08-06T15:07:43;1.53;;;0.93;;
1328;SDS011;658;48.820;9.354;2023-08-06T15:11:43;0.90;;;0.80;;
1328;SDS011;658;48.820;9.354;2023-08-06T15:15:45;1.10;;;1.00;;
1328;SDS011;658;48.820;9.354;2023-08-06T15:19:49;1.60;;;0.77;;
1328;SDS011;658;48.820;9.354;2023-08-06T15:23:50;1.30;;;0.80;;
1328;SDS011;658;48.820;9.354;2023-08-06T15:27:51;1.17;;;0.90;;
1328;SDS011;658;48.820;9.354;2023-08-06T15:31:51;2.20;;;1.00;;
1328;SDS011;658;48.820;9.354;2023-08-06T15:35:52;2.10;;;0.90;;
1328;SDS011;658;48.820;9.354;2023-08-06T15:39:53;1.10;;;0.80;;
1328;SDS011;658;48.820;9.354;2023-08-06T15:43:53;1.90;;;1.00;;
1328;SDS011;658;48.820;9.354;2023-08-06T15:47:54;1.43;;;0.70;;
1328;SDS011;658;48.820;9.354;2023-08-06T15:51:54;2.90;;;0.90;;
1328;SDS011;658;48.820;9.354;2023-08-06T15:55:55;1.50;;;0.90;;
1328;SDS011;658;48.820;9.354;2023-08-06T15:59:56;1.70;;;1.20;;
1328;SDS011;658;48.820;9.354;2023-08-06T16:03:56;1.53;;;1.00;;
1328;SDS011;658;48.820;9.354;2023-08-06T16:07:57;1.27;;;1.10;;
1328;SDS011;658;48.820;9.354;2023-08-06T16:11:57;1.30;;;1.10;;
1328;SDS011;658;48.820;9.354;2023-08-06T16:16:00;1.33;;;1.10;;
1328;SDS011;658;48.820;9.354;2023-08-06T16:20:01;1.63;;;1.27;;
1328;SDS011;658;48.820;9.354;2023-08-06T16:24:02;3.70;;;1.47;;
1328;SDS011;658;48.820;9.354;2023-08-06T16:28:04;10.73;;;3.93;;
1328;SDS011;658;48.820;9.354;2023-08-06T16:32:05;5.93;;;3.00;;
1328;SDS011;658;48.820;9.354;2023-08-06T16:36:06;6.67;;;3.37;;
1328;SDS011;658;48.820;9.354;2023-08-06T16:40:06;11.13;;;4.47;;
1328;SDS011;658;48.820;9.354;2023-08-06T16:44:10;13.07;;;6.50;;
1328;SDS011;658;48.820;9.354;2023-08-06T16:48:14;10.37;;;5.67;;
1328;SDS011;658;48.820;9.354;2023-08-06T16:52:15;12.37;;;6.40;;
1328;SDS011;658;48.820;9.354;2023-08-06T16:56:17;10.13;;;6.50;;
1328;SDS011;658;48.820;9.354;2023-08-06T17:00:20;9.93;;;6.40;;
1328;SDS011;658;48.820;9.354;2023-08-06T17:04:20;12.50;;;6.10;;
1328;SDS011;658;48.820;9.354;2023-08-06T17:08:22;13.20;;;7.30;;
1328;SDS011;658;48.820;9.354;2023-08-06T17:12:22;12.93;;;6.97;;
1328;SDS011;658;48.820;9.354;2023-08-06T17:16:23;10.93;;;5.73;;
1328;SDS011;658;48.820;9.354;2023-08-06T17:20:23;9.60;;;6.30;;
1328;SDS011;658;48.820;9.354;2023-08-06T17:24:26;8.87;;;6.43;;
1328;SDS011;658;48.820;9.354;2023-08-06T17:28:27;10.33;;;7.13;;
1328;SDS011;658;48.820;9.354;2023-08-06T17:32:28;16.03;;;7.93;;
1328;SDS011;658;48.820;9.354;2023-08-06T17:36:28;11.70;;;7.87;;
1328;SDS011;658;48.820;9.354;2023-08-06T17:40:31;9.63;;;7.20;;
1328;SDS011;658;48.820;9.354;2023-08-06T17:44:32;11.50;;;7.70;;
1328;SDS011;658;48.820;9.354;2023-08-06T17:48:33;10.13;;;6.97;;
1328;SDS011;658;48.820;9.354;2023-08-06T17:52:33;11.50;;;7.53;;
1328;SDS011;658;48.820;9.354;2023-08-06T17:56:36;10.00;;;7.17;;
1328;SDS011;658;48.820;9.354;2023-08-06T18:00:37;10.43;;;6.97;;
1328;SDS011;658;48.820;9.354;2023-08-06T18:04:37;10.40;;;6.60;;
1328;SDS011;658;48.820;9.354;2023-08-06T18:08:38;9.30;;;5.57;;
1328;SDS011;658;48.820;9.354;2023-08-06T18:12:38;7.77;;;5.33;;
1328;SDS011;658;48.820;9.354;2023-08-06T18:16:42;10.93;;;6.27;;
1328;SDS011;658;48.820;9.354;2023-08-06T18:20:42;7.10;;;4.97;;
1328;SDS011;658;48.820;9.354;2023-08-06T18:24:43;7.23;;;5.10;;
1328;SDS011;658;48.820;9.354;2023-08-06T18:28:43;5.07;;;3.93;;
1328;SDS011;658;48.820;9.354;2023-08-06T18:32:45;4.50;;;3.53;;
1328;SDS011;658;48.820;9.354;2023-08-06T18:36:48;5.90;;;3.80;;
1328;SDS011;658;48.820;9.354;2023-08-06T18:40:48;5.20;;;3.43;;
1328;SDS011;658;48.820;9.354;2023-08-06T18:44:58;8.43;;;3.40;;
1328;SDS011;658;48.820;9.354;2023-08-06T18:48:58;5.40;;;2.90;;
1328;SDS011;658;48.820;9.354;2023-08-06T18:52:59;5.00;;;2.80;;
1328;SDS011;658;48.820;9.354;2023-08-06T18:56:59;3.33;;;2.83;;
1328;SDS011;658;48.820;9.354;2023-08-06T19:01:00;2.97;;;2.10;;
1328;SDS011;658;48.820;9.354;2023-08-06T19:05:03;2.83;;;2.13;;
1328;SDS011;658;48.820;9.354;2023-08-06T19:09:04;4.97;;;2.30;;
1328;SDS011;658;48.820;9.354;2023-08-06T19:13:08;4.40;;;2.87;;
1328;SDS011;658;48.820;9.354;2023-08-06T19:17:10;2.73;;;2.40;;
1328;SDS011;658;48.820;9.354;2023-08-06T19:21:10;2.43;;;1.87;;
1328;SDS011;658;48.820;9.354;2023-08-06T19:25:11;2.63;;;2.10;;
1328;SDS011;658;48.820;9.354;2023-08-06T19:29:12;2.17;;;1.97;;
1328;SDS011;658;48.820;9.354;2023-08-06T19:33:14;2.90;;;2.00;;
1328;SDS011;658;48.820;9.354;2023-08-06T19:37:16;1.87;;;1.70;;
1328;SDS011;658;48.820;9.354;2023-08-06T19:41:16;2.90;;;1.70;;
1328;SDS011;658;48.820;9.354;2023-08-06T19:45:17;1.70;;;1.60;;
1328;SDS011;658;48.820;9.354;2023-08-06T19:49:18;2.03;;;1.80;;
1328;SDS011;658;48.820;9.354;2023-08-06T19:53:19;1.70;;;1.60;;
1328;SDS011;658;48.820;9.354;2023-08-06T19:57:19;1.70;;;1.60;;
1328;SDS011;658;48.820;9.354;2023-08-06T20:01:20;2.10;;;1.50;;
1328;SDS011;658;48.820;9.354;2023-08-06T20:05:23;1.70;;;1.47;;
1328;SDS011;658;48.820;9.354;2023-08-06T20:09:23;1.33;;;1.20;;
1328;SDS011;658;48.820;9.354;2023-08-06T20:13:24;1.90;;;1.60;;
1328;SDS011;658;48.820;9.354;2023-08-06T20:17:25;2.43;;;1.73;;
1328;SDS011;658;48.820;9.354;2023-08-06T20:21:25;1.50;;;1.40;;
1328;SDS011;658;48.820;9.354;2023-08-06T20:25:27;4.83;;;1.63;;
1328;SDS011;658;48.820;9.354;2023-08-06T20:29:30;2.63;;;1.23;;
1328;SDS011;658;48.820;9.354;2023-08-06T20:33:33;1.80;;;1.60;;
1328;SDS011;658;48.820;9.354;2023-08-06T20:37:35;2.10;;;1.20;;
1328;SDS011;658;48.820;9.354;2023-08-06T20:41:36;1.17;;;1.07;;
1328;SDS011;658;48.820;9.354;2023-08-06T20:45:37;1.93;;;1.40;;
1328;SDS011;658;48.820;9.354;2023-08-06T20:49:40;1.40;;;1.30;;
1328;SDS011;658;48.820;9.354;2023-08-06T20:53:41;1.50;;;1.40;;
1328;SDS011;658;48.820;9.354;2023-08-06T20:57:41;1.10;;;1.00;;
1328;SDS011;658;48.820;9.354;2023-08-06T21:01:42;4.10;;;1.30;;
1328;SDS011;658;48.820;9.354;2023-08-06T21:05:43;1.53;;;1.33;;
1328;SDS011;658;48.820;9.354;2023-08-06T21:09:43;1.30;;;1.20;;
1328;SDS011;658;48.820;9.354;2023-08-06T21:13:44;1.37;;;1.10;;
1328;SDS011;658;48.820;9.354;2023-08-06T21:17:44;2.30;;;1.13;;
1328;SDS011;658;48.820;9.354;2023-08-06T21:21:45;1.50;;;1.03;;
1328;SDS011;658;48.820;9.354;2023-08-06T21:25:47;1.40;;;1.10;;
1328;SDS011;658;48.820;9.354;2023-08-06T21:29:49;1.30;;;1.10;;
1328;SDS011;658;48.820;9.354;2023-08-06T21:33:50;1.30;;;1.20;;
1328;SDS011;658;48.820;9.354;2023-08-06T21:37:50;1.20;;;1.03;;
1328;SDS011;658;48.820;9.354;2023-08-06T21:41:51;1.30;;;0.90;;
1328;SDS011;658;48.820;9.354;2023-08-06T21:45:51;2.50;;;1.40;;
1328;SDS011;658;48.820;9.354;2023-08-06T21:49:54;1.03;;;0.93;;
1328;SDS011;658;48.820;9.354;2023-08-06T21:53:55;1.47;;;1.20;;
1328;SDS011;658;48.820;9.354;2023-08-06T21:57:59;1.97;;;1.00;;
1328;SDS011;658;48.820;9.354;2023-08-06T22:02:00;1.37;;;1.27;;
1328;SDS011;658;48.820;9.354;2023-08-06T22:06:03;1.23;;;1.13;;
1328;SDS011;658;48.820;9.354;2023-08-06T22:10:04;1.13;;;0.90;;
1328;SDS011;658;48.820;9.354;2023-08-06T22:14:05;0.90;;;0.90;;
1328;SDS011;658;48.820;9.354;2023-08-06T22:18:06;1.00;;;0.90;;
1328;SDS011;658;48.820;9.354;2023-08-06T22:22:06;1.00;;;0.80;;
1328;SDS011;658;48.820;9.354;2023-08-06T22:26:07;0.80;;;0.80;;
1328;SDS011;658;48.820;9.354;2023-08-06T22:30:08;0.97;;;0.90;;
1328;SDS011;658;48.820;9.354;2023-08-06T22:34:12;2.20;;;1.13;;
1328;SDS011;658;48.820;9.354;2023-08-06T22:38:12;0.90;;;0.90;;
1328;SDS011;658;48.820;9.354;2023-08-06T22:42:13;0.80;;;0.80;;
1328;SDS011;658;48.820;9.354;2023-08-06T22:46:14;1.00;;;0.90;;
1328;SDS011;658;48.820;9.354;2023-08-06T22:50:15;0.80;;;0.80;;
1328;SDS011;658;48.820;9.354;2023-08-06T22:54:15;0.70;;;0.70;;
1328;SDS011;658;48.820;9.354;2023-08-06T22:58:16;1.03;;;1.00;;
1328;SDS011;658;48.820;9.354;2023-08-06T23:02:19;0.90;;;0.70;;
1328;SDS011;658;48.820;9.354;2023-08-06T23:06:21;0.90;;;0.90;;
1328;SDS011;658;48.820;9.354;2023-08-06T23:10:21;1.03;;;0.93;;
1328;SDS011;658;48.820;9.354;2023-08-06T23:14:22;1.10;;;0.93;;
1328;SDS011;658;48.820;9.354;2023-08-06T23:18:23;0.90;;;0.90;;
1328;SDS011;658;48.820;9.354;2023-08-06T23:22:23;0.97;;;0.80;;
1328;SDS011;658;48.820;9.354;2023-08-06T23:26:24;0.80;;;0.77;;
1328;SDS011;658;48.820;9.354;2023-08-06T23:30:24;2.47;;;1.27;;
1328;SDS011;658;48.820;9.354;2023-08-06T23:34:25;1.20;;;1.00;;
1328;SDS011;658;48.820;9.354;2023-08-06T23:38:26;0.83;;;0.70;;
1328;SDS011;658;48.820;9.354;2023-08-06T23:42:28;1.40;;;1.17;;
1328;SDS011;658;48.820;9.354;2023-08-06T23:46:30;1.20;;;1.07;;
1328;SDS011;658;48.820;9.354;2023-08-06T23:50:30;0.83;;;0.80;;
1328;SDS011;658;48.820;9.354;2023-08-06T23:54:33;0.90;;;0.90;;
1328;SDS011;658;48.820;9.354;2023-08-06T23:58:33;1.37;;;1.00;;
